sensor_id;sensor_type;location;lat;lon;timestamp;pressure;altitude;pressure_sealevel;temperature;humidity
33163;BME280;29282;45.656;11.302;2022-09-06T00:00:14;98854.56;;;24.36;57.47
33163;BME280;29282;45.656;11.302;2022-09-06T00:02:40;98852.16;;;24.34;57.46
33163;BME280;29282;45.656;11.302;2022-09-06T00:05:08;98845.91;;;24.37;57.61
33163;BME280;29282;45.656;11.302;2022-09-06T00:07:34;98838.97;;;24.44;56.59
33163;BME280;29282;45.656;11.302;2022-09-06T00:09:59;98847.69;;;24.46;57.05
33163;BME280;29282;45.656;11.302;2022-09-06T00:12:25;98840.38;;;24.37;57.11
33163;BME280;29282;45.656;11.302;2022-09-06T00:14:51;98839.13;;;24.35;57.15
33163;BME280;29282;45.656;11.302;2022-09-06T00:17:17;98840.28;;;24.34;57.65
33163;BME280;29282;45.656;11.302;2022-09-06T00:19:43;98843.41;;;24.32;57.31
33163;BME280;29282;45.656;11.302;2022-09-06T00:22:08;98835.72;;;24.42;56.83
33163;BME280;29282;45.656;11.302;2022-09-06T00:24:34;98836.59;;;24.46;56.58
33163;BME280;29282;45.656;11.302;2022-09-06T00:27:02;98843.56;;;24.39;57.15
33163;BME280;29282;45.656;11.302;2022-09-06T00:29:28;98844.66;;;24.35;57.29
33163;BME280;29282;45.656;11.302;2022-09-06T00:31:53;98834.75;;;24.34;57.38
33163;BME280;29282;45.656;11.302;2022-09-06T00:34:19;98828.38;;;24.33;57.28
33163;BME280;29282;45.656;11.302;2022-09-06T00:36:44;98833.66;;;24.38;56.93
33163;BME280;29282;45.656;11.302;2022-09-06T00:39:10;98835.44;;;24.47;56.22
33163;BME280;29282;45.656;11.302;2022-09-06T00:41:35;98832.97;;;24.42;56.95
33163;BME280;29282;45.656;11.302;2022-09-06T00:44:01;98829.63;;;24.36;57.09
33163;BME280;29282;45.656;11.302;2022-09-06T00:46:28;98829.22;;;24.34;57.29
33163;BME280;29282;45.656;11.302;2022-09-06T00:49:12;98821.25;;;24.32;57.28
33163;BME280;29282;45.656;11.302;2022-09-06T00:51:39;98830.44;;;24.36;57.02
33163;BME280;29282;45.656;11.302;2022-09-06T00:54:07;98821.16;;;24.45;56.13
33163;BME280;29282;45.656;11.302;2022-09-06T00:56:34;98824.66;;;24.42;56.66
33163;BME280;29282;45.656;11.302;2022-09-06T00:59:02;98818.94;;;24.34;56.92
33163;BME280;29282;45.656;11.302;2022-09-06T01:01:28;98818.13;;;24.34;57.15
33163;BME280;29282;45.656;11.302;2022-09-06T01:03:54;98814.91;;;24.32;57.21
33163;BME280;29282;45.656;11.302;2022-09-06T01:06:25;98825.19;;;24.31;57.31
33163;BME280;29282;45.656;11.302;2022-09-06T01:14:46;98816.16;;;24.34;57.09
33163;BME280;29282;45.656;11.302;2022-09-06T01:17:32;98824.03;;;24.32;57.10
33163;BME280;29282;45.656;11.302;2022-09-06T01:28:41;98807.13;;;24.37;56.98
33163;BME280;29282;45.656;11.302;2022-09-06T01:31:38;98809.38;;;24.32;56.85
33163;BME280;29282;45.656;11.302;2022-09-06T01:36:49;98812.50;;;24.30;57.27
33163;BME280;29282;45.656;11.302;2022-09-06T01:39:31;98808.72;;;24.38;56.41
33163;BME280;29282;45.656;11.302;2022-09-06T01:41:59;98809.63;;;24.43;56.40
33163;BME280;29282;45.656;11.302;2022-09-06T01:44:28;98812.59;;;24.34;56.91
33163;BME280;29282;45.656;11.302;2022-09-06T01:54:48;98804.38;;;24.37;56.68
33163;BME280;29282;45.656;11.302;2022-09-06T01:57:39;98802.50;;;24.42;56.41
33163;BME280;29282;45.656;11.302;2022-09-06T02:00:07;98810.16;;;24.32;56.85
33163;BME280;29282;45.656;11.302;2022-09-06T02:05:31;98819.19;;;24.29;57.03
33163;BME280;29282;45.656;11.302;2022-09-06T02:08:02;98816.44;;;24.29;57.08
33163;BME280;29282;45.656;11.302;2022-09-06T02:10:33;98812.22;;;24.35;56.43
33163;BME280;29282;45.656;11.302;2022-09-06T02:13:01;98819.56;;;24.44;56.12
33163;BME280;29282;45.656;11.302;2022-09-06T02:15:32;98822.91;;;24.37;56.52
33163;BME280;29282;45.656;11.302;2022-09-06T02:18:21;98816.09;;;24.31;56.58
33163;BME280;29282;45.656;11.302;2022-09-06T02:20:51;98819.19;;;24.29;56.82
33163;BME280;29282;45.656;11.302;2022-09-06T02:23:33;98823.16;;;24.28;57.23
33163;BME280;29282;45.656;11.302;2022-09-06T02:26:23;98816.97;;;24.35;56.43
33163;BME280;29282;45.656;11.302;2022-09-06T02:28:50;98817.16;;;24.42;55.97
33163;BME280;29282;45.656;11.302;2022-09-06T02:31:20;98826.88;;;24.36;56.62
33163;BME280;29282;45.656;11.302;2022-09-06T02:33:48;98817.22;;;24.30;56.94
33163;BME280;29282;45.656;11.302;2022-09-06T02:36:15;98801.34;;;24.27;56.94
33163;BME280;29282;45.656;11.302;2022-09-06T02:38:42;98819.56;;;24.28;56.91
33163;BME280;29282;45.656;11.302;2022-09-06T02:41:09;98818.78;;;24.27;56.81
33163;BME280;29282;45.656;11.302;2022-09-06T02:43:34;98822.13;;;24.36;56.03
33163;BME280;29282;45.656;11.302;2022-09-06T02:46:00;98817.53;;;24.41;56.37
33163;BME280;29282;45.656;11.302;2022-09-06T02:48:25;98816.50;;;24.33;56.68
33163;BME280;29282;45.656;11.302;2022-09-06T02:50:51;98819.19;;;24.29;56.78
33163;BME280;29282;45.656;11.302;2022-09-06T02:53:18;98823.16;;;24.28;56.92
33163;BME280;29282;45.656;11.302;2022-09-06T02:55:47;98820.72;;;24.27;57.06
33163;BME280;29282;45.656;11.302;2022-09-06T02:58:13;98808.56;;;24.31;56.68
33163;BME280;29282;45.656;11.302;2022-09-06T03:00:39;98814.28;;;24.38;55.73
33163;BME280;29282;45.656;11.302;2022-09-06T03:03:06;98801.59;;;24.37;56.54
33163;BME280;29282;45.656;11.302;2022-09-06T03:05:32;98795.88;;;24.30;56.67
33163;BME280;29282;45.656;11.302;2022-09-06T03:07:57;98803.75;;;24.28;56.90
33163;BME280;29282;45.656;11.302;2022-09-06T03:10:23;98800.53;;;24.26;56.85
33163;BME280;29282;45.656;11.302;2022-09-06T03:12:50;98798.94;;;24.25;56.83
33163;BME280;29282;45.656;11.302;2022-09-06T03:15:15;98806.22;;;24.33;56.26
33163;BME280;29282;45.656;11.302;2022-09-06T03:17:42;98806.06;;;24.42;55.80
33163;BME280;29282;45.656;11.302;2022-09-06T03:20:08;98808.19;;;24.33;56.39
33163;BME280;29282;45.656;11.302;2022-09-06T03:22:35;98806.53;;;24.28;56.63
33163;BME280;29282;45.656;11.302;2022-09-06T03:25:00;98808.03;;;24.26;56.77
33163;BME280;29282;45.656;11.302;2022-09-06T03:27:26;98812.41;;;24.27;56.81
33163;BME280;29282;45.656;11.302;2022-09-06T03:29:52;98806.94;;;24.30;56.57
33163;BME280;29282;45.656;11.302;2022-09-06T03:32:17;98803.91;;;24.35;55.78
33163;BME280;29282;45.656;11.302;2022-09-06T03:34:43;98808.28;;;24.36;56.32
33163;BME280;29282;45.656;11.302;2022-09-06T03:37:08;98809.31;;;24.28;56.61
33163;BME280;29282;45.656;11.302;2022-09-06T03:39:34;98815.19;;;24.27;56.52
33163;BME280;29282;45.656;11.302;2022-09-06T03:42:00;98811.63;;;24.26;56.81
33163;BME280;29282;45.656;11.302;2022-09-06T03:44:26;98805.66;;;24.24;56.74
33163;BME280;29282;45.656;11.302;2022-09-06T03:46:51;98806.59;;;24.32;56.40
33163;BME280;29282;45.656;11.302;2022-09-06T03:49:17;98804.78;;;24.39;55.81
33163;BME280;29282;45.656;11.302;2022-09-06T03:51:42;98799.91;;;24.33;56.31
33163;BME280;29282;45.656;11.302;2022-09-06T03:54:08;98803.38;;;24.30;56.73
33163;BME280;29282;45.656;11.302;2022-09-06T03:56:34;98796.16;;;24.25;56.58
33163;BME280;29282;45.656;11.302;2022-09-06T03:59:00;98803.69;;;24.25;56.82
33163;BME280;29282;45.656;11.302;2022-09-06T04:01:25;98815.91;;;24.24;56.88
33163;BME280;29282;45.656;11.302;2022-09-06T04:03:51;98807.31;;;24.29;56.48
33163;BME280;29282;45.656;11.302;2022-09-06T04:06:17;98809.44;;;24.35;55.84
33163;BME280;29282;45.656;11.302;2022-09-06T04:08:42;98809.38;;;24.32;56.26
33163;BME280;29282;45.656;11.302;2022-09-06T04:11:08;98803.31;;;24.26;56.55
33163;BME280;29282;45.656;11.302;2022-09-06T04:13:34;98787.88;;;24.25;56.68
33163;BME280;29282;45.656;11.302;2022-09-06T04:16:00;98784.66;;;24.23;56.67
33163;BME280;29282;45.656;11.302;2022-09-06T04:18:26;98790.97;;;24.24;56.95
33163;BME280;29282;45.656;11.302;2022-09-06T04:20:53;98781.69;;;24.32;55.75
33163;BME280;29282;45.656;11.302;2022-09-06T04:23:21;98778.63;;;24.37;56.10
33163;BME280;29282;45.656;11.302;2022-09-06T04:25:48;98783.56;;;24.28;56.47
33163;BME280;29282;45.656;11.302;2022-09-06T04:28:14;98778.75;;;24.25;56.43
33163;BME280;29282;45.656;11.302;2022-09-06T04:30:40;98779.91;;;24.24;56.73
33163;BME280;29282;45.656;11.302;2022-09-06T04:33:06;98780.72;;;24.24;57.03
33163;BME280;29282;45.656;11.302;2022-09-06T04:35:31;98790.34;;;24.30;56.51
33163;BME280;29282;45.656;11.302;2022-09-06T04:38:00;98792.47;;;24.37;55.57
33163;BME280;29282;45.656;11.302;2022-09-06T04:40:26;98796.78;;;24.34;56.54
33163;BME280;29282;45.656;11.302;2022-09-06T04:42:51;98801.78;;;24.29;56.52
33163;BME280;29282;45.656;11.302;2022-09-06T04:45:17;98798.56;;;24.27;56.46
33163;BME280;29282;45.656;11.302;2022-09-06T04:47:42;98803.31;;;24.26;56.77
33163;BME280;29282;45.656;11.302;2022-09-06T04:50:08;98808.41;;;24.24;57.12
33163;BME280;29282;45.656;11.302;2022-09-06T04:52:34;98805.44;;;24.33;56.36
33163;BME280;29282;45.656;11.302;2022-09-06T04:54:59;98805.28;;;24.42;56.07
33163;BME280;29282;45.656;11.302;2022-09-06T04:57:25;98807.84;;;24.34;56.54
33163;BME280;29282;45.656;11.302;2022-09-06T04:59:50;98799.03;;;24.29;56.89
33163;BME280;29282;45.656;11.302;2022-09-06T05:02:15;98799.41;;;24.27;57.02
33163;BME280;29282;45.656;11.302;2022-09-06T05:04:41;98800.53;;;24.26;57.22
33163;BME280;29282;45.656;11.302;2022-09-06T05:07:08;98797.34;;;24.24;57.58
33163;BME280;29282;45.656;11.302;2022-09-06T05:09:33;98795.06;;;24.30;56.51
33163;BME280;29282;45.656;11.302;2022-09-06T05:11:59;98797.03;;;24.29;56.72
33163;BME280;29282;45.656;11.302;2022-09-06T05:14:26;98804.75;;;24.20;57.03
33163;BME280;29282;45.656;11.302;2022-09-06T05:16:52;98801.56;;;24.18;57.19
33163;BME280;29282;45.656;11.302;2022-09-06T05:19:18;98799.13;;;24.17;57.73
33163;BME280;29282;45.656;11.302;2022-09-06T05:21:45;98798.34;;;24.16;57.34
33163;BME280;29282;45.656;11.302;2022-09-06T05:24:10;98794.19;;;24.26;56.29
33163;BME280;29282;45.656;11.302;2022-09-06T05:26:36;98806.38;;;24.21;56.87
33163;BME280;29282;45.656;11.302;2022-09-06T05:29:02;98808.16;;;24.13;57.09
33163;BME280;29282;45.656;11.302;2022-09-06T05:31:30;98806.22;;;24.14;57.22
33163;BME280;29282;45.656;11.302;2022-09-06T05:33:56;98807.34;;;24.13;56.90
33163;BME280;29282;45.656;11.302;2022-09-06T05:36:23;98803.06;;;24.15;56.71
33163;BME280;29282;45.656;11.302;2022-09-06T05:38:50;98792.94;;;24.23;56.00
33163;BME280;29282;45.656;11.302;2022-09-06T05:41:16;98798.72;;;24.14;56.58
33163;BME280;29282;45.656;11.302;2022-09-06T05:43:42;98798.63;;;24.11;56.75
33163;BME280;29282;45.656;11.302;2022-09-06T05:46:08;98796.19;;;24.09;56.58
33163;BME280;29282;45.656;11.302;2022-09-06T05:48:34;98801.41;;;24.11;56.43
33163;BME280;29282;45.656;11.302;2022-09-06T05:51:01;98793.75;;;24.24;55.82
33163;BME280;29282;45.656;11.302;2022-09-06T05:53:33;98802.28;;;24.15;56.41
33163;BME280;29282;45.656;11.302;2022-09-06T05:55:58;98800.16;;;24.08;56.63
33163;BME280;29282;45.656;11.302;2022-09-06T05:58:24;98800.16;;;24.08;56.58
33163;BME280;29282;45.656;11.302;2022-09-06T06:00:49;98806.94;;;24.11;56.46
33163;BME280;29282;45.656;11.302;2022-09-06T06:03:15;98804.03;;;24.23;55.32
33163;BME280;29282;45.656;11.302;2022-09-06T06:05:45;98802.44;;;24.22;55.81
33163;BME280;29282;45.656;11.302;2022-09-06T06:08:11;98801.91;;;24.17;56.39
33163;BME280;29282;45.656;11.302;2022-09-06T06:10:37;98805.84;;;24.15;56.16
33163;BME280;29282;45.656;11.302;2022-09-06T06:13:03;98806.63;;;24.16;56.38
33163;BME280;29282;45.656;11.302;2022-09-06T06:15:29;98799.50;;;24.15;56.05
33163;BME280;29282;45.656;11.302;2022-09-06T06:17:56;98802.16;;;24.27;55.42
33163;BME280;29282;45.656;11.302;2022-09-06T06:20:22;98796.81;;;24.19;56.46
33163;BME280;29282;45.656;11.302;2022-09-06T06:22:47;98798.34;;;24.16;56.20
33163;BME280;29282;45.656;11.302;2022-09-06T06:25:13;98795.56;;;24.16;56.38
33163;BME280;29282;45.656;11.302;2022-09-06T06:27:38;98799.50;;;24.15;56.33
33163;BME280;29282;45.656;11.302;2022-09-06T06:30:04;98793.31;;;24.22;55.75
33163;BME280;29282;45.656;11.302;2022-09-06T06:32:30;98795.66;;;24.20;56.02
33163;BME280;29282;45.656;11.302;2022-09-06T06:34:55;98795.47;;;24.12;56.56
33163;BME280;29282;45.656;11.302;2022-09-06T06:37:21;98791.13;;;24.11;56.81
33163;BME280;29282;45.656;11.302;2022-09-06T06:39:46;98792.25;;;24.10;56.29
33163;BME280;29282;45.656;11.302;2022-09-06T06:42:12;98790.56;;;24.22;55.89
33163;BME280;29282;45.656;11.302;2022-09-06T06:44:37;98794.38;;;24.17;56.36
33163;BME280;29282;45.656;11.302;2022-09-06T06:47:03;98794.69;;;24.12;56.59
33163;BME280;29282;45.656;11.302;2022-09-06T06:49:29;98792.72;;;24.12;56.59
33163;BME280;29282;45.656;11.302;2022-09-06T06:51:54;98793.16;;;24.14;56.52
33163;BME280;29282;45.656;11.302;2022-09-06T06:54:20;98796.63;;;24.27;55.54
33163;BME280;29282;45.656;11.302;2022-09-06T06:56:45;98793.41;;;24.25;56.23
33163;BME280;29282;45.656;11.302;2022-09-06T06:59:11;98788.13;;;24.20;56.40
33163;BME280;29282;45.656;11.302;2022-09-06T07:01:36;98795.22;;;24.18;56.25
33163;BME280;29282;45.656;11.302;2022-09-06T07:04:03;98794.38;;;24.17;56.36
33163;BME280;29282;45.656;11.302;2022-09-06T07:06:29;98796.75;;;24.15;56.54
33163;BME280;29282;45.656;11.302;2022-09-06T07:08:58;98802.16;;;24.27;55.74
33163;BME280;29282;45.656;11.302;2022-09-06T07:11:24;98799.81;;;24.29;55.72
33163;BME280;29282;45.656;11.302;2022-09-06T07:13:49;98794.13;;;24.22;56.22
33163;BME280;29282;45.656;11.302;2022-09-06T07:16:20;98800.38;;;24.19;56.20
33163;BME280;29282;45.656;11.302;2022-09-06T07:18:49;98792.44;;;24.18;56.29
33163;BME280;29282;45.656;11.302;2022-09-06T07:21:20;98796.38;;;24.17;56.55
33163;BME280;29282;45.656;11.302;2022-09-06T07:23:50;98794.03;;;24.19;56.46
33163;BME280;29282;45.656;11.302;2022-09-06T07:26:18;98792.69;;;24.28;55.62
33163;BME280;29282;45.656;11.302;2022-09-06T07:28:44;98787.16;;;24.28;55.87
33163;BME280;29282;45.656;11.302;2022-09-06T07:31:11;98794.13;;;24.22;56.19
33163;BME280;29282;45.656;11.302;2022-09-06T07:33:37;98793.66;;;24.20;56.20
33163;BME280;29282;45.656;11.302;2022-09-06T07:36:05;98795.66;;;24.20;56.34
33163;BME280;29282;45.656;11.302;2022-09-06T07:38:31;98794.03;;;24.19;56.37
33163;BME280;29282;45.656;11.302;2022-09-06T07:41:02;98798.88;;;24.22;56.33
33163;BME280;29282;45.656;11.302;2022-09-06T07:43:29;98792.75;;;24.32;55.48
33163;BME280;29282;45.656;11.302;2022-09-06T07:46:02;98800.19;;;24.28;56.18
33163;BME280;29282;45.656;11.302;2022-09-06T07:48:29;98787.78;;;24.22;56.40
33163;BME280;29282;45.656;11.302;2022-09-06T07:51:08;98792.53;;;24.21;56.27
33163;BME280;29282;45.656;11.302;2022-09-06T07:53:35;98788.97;;;24.21;56.36
33163;BME280;29282;45.656;11.302;2022-09-06T07:56:02;98796.44;;;24.20;56.69
33163;BME280;29282;45.656;11.302;2022-09-06T07:58:29;98789.47;;;24.26;55.88
33163;BME280;29282;45.656;11.302;2022-09-06T08:01:18;98798.38;;;24.35;55.79
33163;BME280;29282;45.656;11.302;2022-09-06T08:03:45;98798.56;;;24.27;56.32
33163;BME280;29282;45.656;11.302;2022-09-06T08:06:11;98800.91;;;24.25;56.56
33163;BME280;29282;45.656;11.302;2022-09-06T08:08:37;98801.25;;;24.23;56.39
33163;BME280;29282;45.656;11.302;2022-09-06T08:11:03;98805.19;;;24.22;56.45
33163;BME280;29282;45.656;11.302;2022-09-06T08:13:32;98805.19;;;24.22;56.67
33163;BME280;29282;45.656;11.302;2022-09-06T08:16:03;98798.66;;;24.30;55.93
33163;BME280;29282;45.656;11.302;2022-09-06T08:18:29;98805.09;;;24.34;56.18
33163;BME280;29282;45.656;11.302;2022-09-06T08:20:54;98797.78;;;24.26;56.55
33163;BME280;29282;45.656;11.302;2022-09-06T08:23:20;98797.34;;;24.24;56.28
33163;BME280;29282;45.656;11.302;2022-09-06T08:25:58;98799.66;;;24.22;56.29
33163;BME280;29282;45.656;11.302;2022-09-06T08:28:24;98802.44;;;24.22;56.82
33163;BME280;29282;45.656;11.302;2022-09-06T08:30:50;98798.16;;;24.25;56.56
33163;BME280;29282;45.656;11.302;2022-09-06T08:33:16;98803.91;;;24.35;55.24
33163;BME280;29282;45.656;11.302;2022-09-06T08:35:56;98803.03;;;24.31;56.22
33163;BME280;29282;45.656;11.302;2022-09-06T08:38:22;98800.13;;;24.24;56.54
33163;BME280;29282;45.656;11.302;2022-09-06T08:40:48;98799.28;;;24.24;56.36
33163;BME280;29282;45.656;11.302;2022-09-06T08:43:17;98811.19;;;24.24;56.60
33163;BME280;29282;45.656;11.302;2022-09-06T08:45:46;98803.22;;;24.23;56.50
33163;BME280;29282;45.656;11.302;2022-09-06T08:48:13;98802.97;;;24.28;56.37
33163;BME280;29282;45.656;11.302;2022-09-06T08:50:46;98799.63;;;24.38;55.73
33163;BME280;29282;45.656;11.302;2022-09-06T08:53:16;98803.84;;;24.32;56.10
33163;BME280;29282;45.656;11.302;2022-09-06T08:56:04;98800.53;;;24.26;56.27
33163;BME280;29282;45.656;11.302;2022-09-06T09:01:13;98795.72;;;24.23;56.41
33163;BME280;29282;45.656;11.302;2022-09-06T09:03:41;98789.38;;;24.23;56.75
33163;BME280;29282;45.656;11.302;2022-09-06T09:06:08;98784.06;;;24.33;55.89
33163;BME280;29282;45.656;11.302;2022-09-06T09:08:42;98784.16;;;24.37;55.77
33163;BME280;29282;45.656;11.302;2022-09-06T09:11:21;98785.97;;;24.29;56.38
33163;BME280;29282;45.656;11.302;2022-09-06T09:13:58;98783.94;;;24.26;56.45
33163;BME280;29282;45.656;11.302;2022-09-06T09:16:27;98788.66;;;24.26;56.54
33163;BME280;29282;45.656;11.302;2022-09-06T09:18:55;98787.06;;;24.25;56.78
33163;BME280;29282;45.656;11.302;2022-09-06T09:21:23;98787.88;;;24.25;56.88
33163;BME280;29282;45.656;11.302;2022-09-06T09:23:57;98784.97;;;24.37;55.58
33163;BME280;29282;45.656;11.302;2022-09-06T09:26:25;98779.78;;;24.36;56.04
33163;BME280;29282;45.656;11.302;2022-09-06T09:29:12;98777.66;;;24.29;56.29
33163;BME280;29282;45.656;11.302;2022-09-06T09:31:46;98769.72;;;24.28;56.37
33163;BME280;29282;45.656;11.302;2022-09-06T09:39:42;98768.28;;;24.34;56.10
33163;BME280;29282;45.656;11.302;2022-09-06T09:42:08;98759.38;;;24.41;55.39
33163;BME280;29282;45.656;11.302;2022-09-06T09:44:35;98756.38;;;24.33;56.20
33163;BME280;29282;45.656;11.302;2022-09-06T09:47:23;98757.09;;;24.30;56.47
33163;BME280;29282;45.656;11.302;2022-09-06T09:49:49;98751.94;;;24.29;56.33
33163;BME280;29282;45.656;11.302;2022-09-06T09:52:14;98748.38;;;24.28;56.42
33163;BME280;29282;45.656;11.302;2022-09-06T09:54:47;98750.44;;;24.31;56.40
33163;BME280;29282;45.656;11.302;2022-09-06T09:57:18;98740.78;;;24.41;55.27
33163;BME280;29282;45.656;11.302;2022-09-06T09:59:49;98736.72;;;24.38;55.96
33163;BME280;29282;45.656;11.302;2022-09-06T10:02:24;98734.94;;;24.30;56.19
33163;BME280;29282;45.656;11.302;2022-09-06T10:05:32;98734.16;;;24.30;56.33
33163;BME280;29282;45.656;11.302;2022-09-06T10:07:44;98725.06;;;24.29;56.35
33163;BME280;29282;45.656;11.302;2022-09-06T10:10:19;98733.34;;;24.29;56.21
33163;BME280;29282;45.656;11.302;2022-09-06T10:12:46;98734.69;;;24.35;55.95
33163;BME280;29282;45.656;11.302;2022-09-06T10:15:31;98734.50;;;24.44;55.47
33163;BME280;29282;45.656;11.302;2022-09-06T10:17:57;98739.84;;;24.37;56.36
33163;BME280;29282;45.656;11.302;2022-09-06T10:20:44;98730.66;;;24.33;56.26
33163;BME280;29282;45.656;11.302;2022-09-06T10:23:19;98730.25;;;24.31;56.18
33163;BME280;29282;45.656;11.302;2022-09-06T10:26:05;98731.38;;;24.30;56.20
33163;BME280;29282;45.656;11.302;2022-09-06T10:28:34;98730.25;;;24.31;56.69
33163;BME280;29282;45.656;11.302;2022-09-06T10:36:19;98716.88;;;24.36;56.05
33163;BME280;29282;45.656;11.302;2022-09-06T10:38:56;98712.06;;;24.33;56.20
33163;BME280;29282;45.656;11.302;2022-09-06T10:44:45;98708.09;;;24.31;56.39
33163;BME280;29282;45.656;11.302;2022-09-06T10:46:43;98706.59;;;24.37;55.92
33163;BME280;29282;45.656;11.302;2022-09-06T10:49:15;98705.25;;;24.47;55.32
33163;BME280;29282;45.656;11.302;2022-09-06T10:51:43;98697.56;;;24.40;55.95
33163;BME280;29282;45.656;11.302;2022-09-06T10:54:12;98696.28;;;24.34;56.09
33163;BME280;29282;45.656;11.302;2022-09-06T10:56:44;98692.69;;;24.33;56.30
33163;BME280;29282;45.656;11.302;2022-09-06T10:59:32;98678.06;;;24.33;56.37
33163;BME280;29282;45.656;11.302;2022-09-06T11:04:34;98677.13;;;24.45;55.53
33163;BME280;29282;45.656;11.302;2022-09-06T11:07:06;98675.16;;;24.45;55.58
33163;BME280;29282;45.656;11.302;2022-09-06T11:09:40;98671.78;;;24.36;56.15
33163;BME280;29282;45.656;11.302;2022-09-06T11:14:48;98659.13;;;24.35;56.18
33163;BME280;29282;45.656;11.302;2022-09-06T11:17:27;98665.81;;;24.34;56.20
33163;BME280;29282;45.656;11.302;2022-09-06T11:20:23;98658.00;;;24.39;55.88
33163;BME280;29282;45.656;11.302;2022-09-06T11:28:42;98654.81;;;24.37;56.25
33163;BME280;29282;45.656;11.302;2022-09-06T11:31:22;98644.88;;;24.36;55.97
33163;BME280;29282;45.656;11.302;2022-09-06T11:34:09;98642.13;;;24.36;56.33
33163;BME280;29282;45.656;11.302;2022-09-06T11:36:49;98645.09;;;24.44;55.76
33163;BME280;29282;45.656;11.302;2022-09-06T11:39:28;98641.41;;;24.59;55.11
33163;BME280;29282;45.656;11.302;2022-09-06T11:41:57;98639.22;;;24.49;56.01
33163;BME280;29282;45.656;11.302;2022-09-06T11:47:37;98633.88;;;24.40;56.60
33163;BME280;29282;45.656;11.302;2022-09-06T11:50:23;98638.63;;;24.39;56.66
33163;BME280;29282;45.656;11.302;2022-09-06T11:53:17;98633.56;;;24.42;56.57
33163;BME280;29282;45.656;11.302;2022-09-06T11:56:08;98634.25;;;24.58;55.10
33163;BME280;29282;45.656;11.302;2022-09-06T11:58:50;98621.88;;;24.52;55.93
33163;BME280;29282;45.656;11.302;2022-09-06T12:06:34;98617.38;;;24.44;56.88
33163;BME280;29282;45.656;11.302;2022-09-06T12:09:01;98616.22;;;24.45;57.11
33163;BME280;29282;45.656;11.302;2022-09-06T12:11:48;98614.50;;;24.59;55.46
33163;BME280;29282;45.656;11.302;2022-09-06T12:14:40;98608.81;;;24.52;56.34
33163;BME280;29282;45.656;11.302;2022-09-06T12:20:06;98604.34;;;24.44;56.70
33163;BME280;29282;45.656;11.302;2022-09-06T12:25:15;98596.81;;;24.45;57.22
33163;BME280;29282;45.656;11.302;2022-09-06T12:27:59;98607.75;;;24.57;55.91
33163;BME280;29282;45.656;11.302;2022-09-06T12:33:15;98598.06;;;24.47;56.57
33163;BME280;29282;45.656;11.302;2022-09-06T12:35:45;98598.78;;;24.44;56.83
33163;BME280;29282;45.656;11.302;2022-09-06T12:38:13;98594.41;;;24.43;57.18
33163;BME280;29282;45.656;11.302;2022-09-06T12:40:47;98593.59;;;24.43;56.84
33163;BME280;29282;45.656;11.302;2022-09-06T12:43:16;98586.00;;;24.59;55.95
33163;BME280;29282;45.656;11.302;2022-09-06T12:45:47;98572.53;;;24.57;56.37
33163;BME280;29282;45.656;11.302;2022-09-06T12:48:32;98571.97;;;24.48;56.58
33163;BME280;29282;45.656;11.302;2022-09-06T12:51:08;98575.47;;;24.45;56.84
33163;BME280;29282;45.656;11.302;2022-09-06T12:53:49;98577.78;;;24.43;57.04
33163;BME280;29282;45.656;11.302;2022-09-06T12:56:19;98569.84;;;24.42;57.04
33163;BME280;29282;45.656;11.302;2022-09-06T12:58:45;98573.19;;;24.51;56.35
33163;BME280;29282;45.656;11.302;2022-09-06T13:01:20;98566.97;;;24.57;55.89
33163;BME280;29282;45.656;11.302;2022-09-06T13:04:01;98556.53;;;24.47;56.65
33163;BME280;29282;45.656;11.302;2022-09-06T13:06:32;98564.75;;;24.44;56.84
33163;BME280;29282;45.656;11.302;2022-09-06T13:09:01;98561.56;;;24.42;56.96
33163;BME280;29282;45.656;11.302;2022-09-06T13:11:30;98559.97;;;24.41;57.00
33163;BME280;29282;45.656;11.302;2022-09-06T13:13:58;98552.91;;;24.47;56.39
33163;BME280;29282;45.656;11.302;2022-09-06T13:16:29;98552.34;;;24.57;55.82
33163;BME280;29282;45.656;11.302;2022-09-06T13:19:13;98538.34;;;24.50;56.39
33163;BME280;29282;45.656;11.302;2022-09-06T13:21:40;98541.78;;;24.43;56.69
33163;BME280;29282;45.656;11.302;2022-09-06T13:24:35;98543.75;;;24.43;56.77
33163;BME280;29282;45.656;11.302;2022-09-06T13:30:37;98540.25;;;24.46;56.54
33163;BME280;29282;45.656;11.302;2022-09-06T13:33:07;98527.41;;;24.57;55.64
33163;BME280;29282;45.656;11.302;2022-09-06T13:35:49;98535.16;;;24.48;56.68
33163;BME280;29282;45.656;11.302;2022-09-06T13:38:37;98526.00;;;24.44;56.46
33163;BME280;29282;45.656;11.302;2022-09-06T13:41:05;98521.59;;;24.43;56.93
33163;BME280;29282;45.656;11.302;2022-09-06T13:43:41;98513.28;;;24.43;56.88
33163;BME280;29282;45.656;11.302;2022-09-06T13:46:09;98505.84;;;24.47;56.41
33163;BME280;29282;45.656;11.302;2022-09-06T13:48:36;98505.66;;;24.59;55.49
33163;BME280;29282;45.656;11.302;2022-09-06T13:51:05;98502.78;;;24.52;56.37
33163;BME280;29282;45.656;11.302;2022-09-06T13:53:33;98498.72;;;24.46;56.43
33163;BME280;29282;45.656;11.302;2022-09-06T13:55:58;98506.22;;;24.45;56.55
33163;BME280;29282;45.656;11.302;2022-09-06T13:58:24;98503.00;;;24.43;56.86
33163;BME280;29282;45.656;11.302;2022-09-06T14:00:51;98498.28;;;24.44;56.92
33163;BME280;29282;45.656;11.302;2022-09-06T14:03:23;98494.16;;;24.57;55.50
33163;BME280;29282;45.656;11.302;2022-09-06T14:05:51;98489.41;;;24.57;55.91
33163;BME280;29282;45.656;11.302;2022-09-06T14:08:17;98486.09;;;24.48;56.37
33163;BME280;29282;45.656;11.302;2022-09-06T14:10:42;98491.56;;;24.45;56.57
33163;BME280;29282;45.656;11.302;2022-09-06T14:13:08;98493.16;;;24.46;56.73
33163;BME280;29282;45.656;11.302;2022-09-06T14:15:34;98490.00;;;24.44;56.89
33163;BME280;29282;45.656;11.302;2022-09-06T14:17:59;98484.84;;;24.46;56.42